createdAt,value
2022-09-09T00:02:29.203Z,88.80
2022-09-09T00:05:20.969Z,89.20
2022-09-09T00:07:53.710Z,89.20
2022-09-09T00:10:43.139Z,89.40
2022-09-09T00:13:25.667Z,89.70
2022-09-09T00:16:18.487Z,89.80
2022-09-09T00:19:05.650Z,89.90
2022-09-09T00:21:40.278Z,90.00
2022-09-09T00:24:42.938Z,90.10
2022-09-09T00:27:41.370Z,90.10
2022-09-09T00:30:28.463Z,90.20
2022-09-09T00:33:02.701Z,90.20
2022-09-09T00:35:40.758Z,90.40
2022-09-09T00:38:20.402Z,90.50
2022-09-09T00:41:08.646Z,90.70
2022-09-09T00:43:39.497Z,90.80
2022-09-09T00:46:24.829Z,90.90
2022-09-09T00:49:10.459Z,90.90
2022-09-09T00:51:58.365Z,90.90
2022-09-09T00:55:17.309Z,91.00
2022-09-09T00:57:47.278Z,91.00
2022-09-09T01:00:42.617Z,91.00
2022-09-09T01:03:12.640Z,91.00
2022-09-09T01:05:55.029Z,91.00
2022-09-09T01:08:22.613Z,90.90
2022-09-09T01:10:55.407Z,91.20
2022-09-09T01:13:32.715Z,90.80
2022-09-09T01:16:03.603Z,90.80
2022-09-09T01:18:38.352Z,90.90
2022-09-09T01:21:22.887Z,90.80
2022-09-09T01:24:15.141Z,90.80
2022-09-09T01:26:47.159Z,90.80
2022-09-09T01:29:18.472Z,90.80
2022-09-09T01:32:22.330Z,90.80
2022-09-09T01:34:51.260Z,90.90
2022-09-09T01:37:18.510Z,90.90
2022-09-09T01:39:46.376Z,90.90
2022-09-09T01:42:17.230Z,90.90
2022-09-09T01:44:44.501Z,90.90
2022-09-09T01:47:12.222Z,91.00
2022-09-09T01:49:39.453Z,91.10
2022-09-09T01:52:07.117Z,91.10
2022-09-09T01:54:35.679Z,91.00
2022-09-09T01:57:39.745Z,91.00
2022-09-09T02:00:14.346Z,91.30
2022-09-09T02:02:53.409Z,91.00
2022-09-09T02:05:41.268Z,91.10
2022-09-09T02:08:16.787Z,91.20
2022-09-09T02:10:56.320Z,91.30
2022-09-09T02:13:24.127Z,91.40
2022-09-09T02:16:02.478Z,91.50
2022-09-09T02:18:36.050Z,91.50
2022-09-09T02:21:04.343Z,91.50
2022-09-09T02:23:34.849Z,91.50
2022-09-09T02:26:05.087Z,91.50
2022-09-09T02:28:35.532Z,91.80
2022-09-09T02:31:03.209Z,91.60
2022-09-09T02:33:46.503Z,91.60
2022-09-09T02:36:17.351Z,91.60
2022-09-09T02:38:54.120Z,91.60
2022-09-09T02:41:32.923Z,91.70
2022-09-09T02:44:00.682Z,91.70
2022-09-09T02:47:08.510Z,91.70
2022-09-09T02:50:14.016Z,91.80
2022-09-09T02:53:08.662Z,91.70
2022-09-09T02:55:47.822Z,91.70
2022-09-09T02:58:18.787Z,91.80
2022-09-09T03:00:51.720Z,91.80
2022-09-09T03:03:20.811Z,91.80
2022-09-09T03:05:48.086Z,91.80
2022-09-09T03:08:15.378Z,92.20
2022-09-09T03:10:42.825Z,91.90
2022-09-09T03:13:10.149Z,91.90
2022-09-09T03:15:38.332Z,91.90
2022-09-09T03:18:05.600Z,91.90
2022-09-09T03:20:33.180Z,91.90
2022-09-09T03:23:01.795Z,92.00
2022-09-09T03:25:29.732Z,92.00
2022-09-09T03:27:57.465Z,92.00
2022-09-09T03:30:27.702Z,92.00
2022-09-09T03:32:56.254Z,92.10
2022-09-09T03:35:23.918Z,92.10
2022-09-09T03:37:51.294Z,92.10
2022-09-09T03:40:19.202Z,92.10
2022-09-09T03:42:46.548Z,92.10
2022-09-09T03:45:13.745Z,92.10
2022-09-09T03:47:41.172Z,92.10
2022-09-09T03:50:11.415Z,92.10
2022-09-09T03:52:41.973Z,92.10
2022-09-09T03:55:09.848Z,92.00
2022-09-09T03:57:37.397Z,92.00
2022-09-09T04:00:07.163Z,92.00
2022-09-09T04:02:35.755Z,92.10
2022-09-09T04:05:03.106Z,92.00
2022-09-09T04:07:30.337Z,92.00
2022-09-09T04:09:58.209Z,92.00
2022-09-09T04:12:25.484Z,92.00
2022-09-09T04:14:52.684Z,92.00
2022-09-09T04:17:19.868Z,92.30
2022-09-09T04:19:47.644Z,91.90
2022-09-09T04:22:17.180Z,91.90
2022-09-09T04:24:48.524Z,92.00
2022-09-09T04:27:17.170Z,91.90
2022-09-09T04:29:44.359Z,92.00
2022-09-09T04:32:11.929Z,92.00
2022-09-09T04:34:39.183Z,91.90
2022-09-09T04:37:06.458Z,91.80
2022-09-09T04:39:33.760Z,91.80
2022-09-09T04:42:01.064Z,91.70
2022-09-09T04:44:28.297Z,91.60
2022-09-09T04:46:55.481Z,91.50
2022-09-09T04:49:22.851Z,91.40
2022-09-09T04:51:53.974Z,91.30
2022-09-09T04:54:21.259Z,91.30
2022-09-09T04:56:48.500Z,91.30
2022-09-09T04:59:15.996Z,91.20
2022-09-09T05:01:43.702Z,91.30
2022-09-09T05:04:11.359Z,91.30
2022-09-09T05:06:38.669Z,91.30
2022-09-09T05:09:05.930Z,91.30
2022-09-09T05:11:37.745Z,91.30
2022-09-09T05:14:06.174Z,91.30
2022-09-09T05:16:35.237Z,91.20
2022-09-09T05:19:04.252Z,91.10
2022-09-09T05:21:32.458Z,91.10
2022-09-09T05:24:01.683Z,91.00
2022-09-09T05:26:30.526Z,90.80
2022-09-09T05:28:58.072Z,90.50
2022-09-09T05:31:27.654Z,90.30
2022-09-09T05:33:56.692Z,89.90
2022-09-09T05:36:24.638Z,89.30
2022-09-09T05:38:54.818Z,89.00
2022-09-09T05:41:26.413Z,88.90
2022-09-09T05:43:53.845Z,88.60
2022-09-09T05:46:25.096Z,88.10
2022-09-09T05:48:54.497Z,87.50
2022-09-09T05:51:29.180Z,86.80
2022-09-09T05:53:59.489Z,85.30
2022-09-09T05:56:29.633Z,84.70
2022-09-09T05:58:57.529Z,83.80
2022-09-09T06:01:32.169Z,83.20
2022-09-09T06:04:01.169Z,82.70
2022-09-09T06:06:37.625Z,82.00
2022-09-09T06:09:10.521Z,81.80
2022-09-09T06:11:41.077Z,82.00
2022-09-09T06:14:09.454Z,81.10
2022-09-09T06:16:38.902Z,80.70
2022-09-09T06:19:06.284Z,80.40
2022-09-09T06:21:39.767Z,80.50
2022-09-09T06:24:08.591Z,80.00
2022-09-09T06:26:43.615Z,79.60
2022-09-09T06:29:11.309Z,79.20
2022-09-09T06:31:39.309Z,78.50
2022-09-09T06:34:09.426Z,77.90
2022-09-09T06:36:39.971Z,77.70
2022-09-09T06:39:14.722Z,77.40
2022-09-09T06:41:43.606Z,77.00
2022-09-09T06:44:13.017Z,76.80
2022-09-09T06:46:40.853Z,76.90
2022-09-09T06:49:10.716Z,76.70
2022-09-09T06:51:44.043Z,76.70
2022-09-09T06:54:13.317Z,76.40
2022-09-09T06:56:44.258Z,76.00
2022-09-09T06:59:13.380Z,75.90
2022-09-09T07:01:50.304Z,75.40
2022-09-09T07:04:20.081Z,75.40
2022-09-09T07:06:47.785Z,75.00
2022-09-09T07:09:17.406Z,74.90
2022-09-09T07:11:49.630Z,74.70
2022-09-09T07:14:18.867Z,74.50
2022-09-09T07:16:47.761Z,74.00
2022-09-09T07:19:17.134Z,73.50
2022-09-09T07:21:44.944Z,73.60
2022-09-09T07:24:13.843Z,73.40
2022-09-09T07:26:41.793Z,73.30
2022-09-09T07:29:10.161Z,73.30
2022-09-09T07:31:41.107Z,73.20
2022-09-09T07:34:09.156Z,72.60
2022-09-09T07:36:41.069Z,72.20
2022-09-09T07:39:12.136Z,71.80
2022-09-09T07:41:45.083Z,71.20
2022-09-09T07:44:23.213Z,70.80
2022-09-09T07:46:51.102Z,70.50
2022-09-09T07:49:24.410Z,70.20
2022-09-09T07:51:55.378Z,69.90
2022-09-09T07:54:24.699Z,69.50
2022-09-09T07:56:53.082Z,69.40
2022-09-09T07:59:21.782Z,69.10
2022-09-09T08:01:55.806Z,68.70
2022-09-09T08:04:26.261Z,68.50
2022-09-09T08:07:02.447Z,68.00
2022-09-09T08:09:30.887Z,68.00
2022-09-09T08:11:59.235Z,67.90
2022-09-09T08:14:26.650Z,67.60
2022-09-09T08:16:55.508Z,67.00
2022-09-09T08:19:22.959Z,67.00
2022-09-09T08:21:50.681Z,66.20
2022-09-09T08:24:20.658Z,65.70
2022-09-09T08:26:50.351Z,65.10
2022-09-09T08:29:18.431Z,64.60
2022-09-09T08:31:52.229Z,63.40
2022-09-09T08:34:21.089Z,62.40
2022-09-09T08:36:50.283Z,61.30
2022-09-09T08:39:22.272Z,60.30
2022-09-09T08:42:36.604Z,59.30
2022-09-09T08:45:21.053Z,57.80
2022-09-09T08:48:39.288Z,57.50
2022-09-09T08:51:09.828Z,57.40
2022-09-09T08:53:47.484Z,56.90
2022-09-09T08:56:23.679Z,56.10
2022-09-09T08:58:58.165Z,55.40
2022-09-09T09:01:34.027Z,55.30
2022-09-09T09:04:42.697Z,54.80
2022-09-09T09:07:26.070Z,54.60
2022-09-09T09:10:40.437Z,53.80
2022-09-09T09:13:22.711Z,53.80
2022-09-09T09:16:01.940Z,53.90
2022-09-09T09:18:29.387Z,53.50
2022-09-09T09:21:34.622Z,53.10
2022-09-09T09:24:06.951Z,52.80
2022-09-09T09:26:38.390Z,52.80
2022-09-09T09:29:20.183Z,52.40
2022-09-09T09:31:58.142Z,52.00
2022-09-09T09:34:26.155Z,51.80
2022-09-09T09:37:12.515Z,51.80
2022-09-09T09:42:28.622Z,51.70
2022-09-09T09:44:56.894Z,51.70
2022-09-09T09:47:25.166Z,50.90
2022-09-09T09:49:57.575Z,50.70
2022-09-09T09:52:31.605Z,50.80
2022-09-09T09:55:07.586Z,50.80
2022-09-09T09:57:36.714Z,50.30
2022-09-09T10:00:24.179Z,50.10
2022-09-09T10:02:53.744Z,49.60
2022-09-09T10:05:36.270Z,48.80
2022-09-09T10:08:12.084Z,45.70
2022-09-09T10:10:58.626Z,45.70
2022-09-09T10:13:38.457Z,45.40
2022-09-09T10:16:33.993Z,43.20
2022-09-09T10:19:07.666Z,43.60
2022-09-09T10:22:16.373Z,42.40
2022-09-09T10:24:58.985Z,42.10
2022-09-09T10:27:58.928Z,42.50
2022-09-09T10:31:25.500Z,40.70
2022-09-09T10:34:03.907Z,39.70
2022-09-09T10:36:31.262Z,38.40
2022-09-09T10:39:10.316Z,38.30
2022-09-09T10:41:41.544Z,38.10
2022-09-09T10:44:31.269Z,39.70
2022-09-09T10:47:43.994Z,39.60
2022-09-09T10:51:00.417Z,39.40
2022-09-09T10:53:40.823Z,39.60
2022-09-09T10:56:17.455Z,38.60
2022-09-09T10:59:18.164Z,38.20
2022-09-09T11:02:08.533Z,38.00
2022-09-09T11:04:51.568Z,37.10
2022-09-09T11:08:03.480Z,38.20
2022-09-09T11:11:01.544Z,37.50
2022-09-09T11:13:57.460Z,37.70
2022-09-09T11:16:55.258Z,37.50
2022-09-09T11:19:49.097Z,37.40
2022-09-09T11:22:39.785Z,36.90
2022-09-09T11:25:20.948Z,36.30
2022-09-09T11:28:45.926Z,36.50
2022-09-09T11:31:44.129Z,34.70
2022-09-09T11:34:33.116Z,34.40
2022-09-09T11:37:24.758Z,33.70
2022-09-09T11:40:18.997Z,33.50
2022-09-09T11:42:50.882Z,34.70
2022-09-09T11:45:29.735Z,35.50
2022-09-09T11:48:01.949Z,34.50
2022-09-09T11:50:37.685Z,35.10
2022-09-09T11:53:24.050Z,34.00
2022-09-09T11:56:16.797Z,34.10
2022-09-09T11:58:56.733Z,34.10
2022-09-09T12:01:40.759Z,34.10
2022-09-09T12:04:26.663Z,34.00
2022-09-09T12:07:12.331Z,34.00
2022-09-09T12:09:53.803Z,34.00
2022-09-09T12:12:32.735Z,34.70
2022-09-09T12:15:04.848Z,35.30
2022-09-09T12:17:43.632Z,34.80
2022-09-09T12:20:39.977Z,34.50
2022-09-09T12:23:31.142Z,34.30
2022-09-09T12:26:41.594Z,34.10
2022-09-09T12:29:47.062Z,34.40
2022-09-09T12:32:21.343Z,34.30
2022-09-09T12:35:17.608Z,34.10
2022-09-09T12:37:59.859Z,34.20
2022-09-09T12:40:36.193Z,34.10
2022-09-09T12:43:20.775Z,34.50
2022-09-09T12:45:51.532Z,34.80
2022-09-09T12:48:22.745Z,34.60
2022-09-09T12:50:54.216Z,34.50
2022-09-09T12:53:39.973Z,34.50
2022-09-09T12:56:21.003Z,34.10
2022-09-09T12:58:52.717Z,34.40
2022-09-09T13:01:30.879Z,34.30
2022-09-09T13:03:59.307Z,34.20
2022-09-09T13:06:29.468Z,34.20
2022-09-09T13:09:00.981Z,33.90
2022-09-09T13:11:39.355Z,34.00
2022-09-09T13:14:07.587Z,33.60
2022-09-09T13:16:42.516Z,34.10
2022-09-09T13:19:16.992Z,34.30
2022-09-09T13:21:44.949Z,34.30
2022-09-09T13:24:35.997Z,33.70
2022-09-09T13:27:30.589Z,33.80
2022-09-09T13:29:58.070Z,33.80
2022-09-09T13:32:28.107Z,34.10
2022-09-09T13:34:57.912Z,33.70
2022-09-09T13:37:35.852Z,33.50
2022-09-09T13:40:07.336Z,33.50
2022-09-09T13:42:43.748Z,33.20
2022-09-09T13:45:24.451Z,33.10
2022-09-09T13:47:53.778Z,33.40
2022-09-09T13:50:31.149Z,33.40
2022-09-09T13:53:00.661Z,33.10
2022-09-09T13:55:30.829Z,32.30
2022-09-09T13:58:02.235Z,32.30
2022-09-09T14:00:36.030Z,32.30
2022-09-09T14:03:03.748Z,32.20
2022-09-09T14:05:34.853Z,32.90
2022-09-09T14:08:05.715Z,32.80
2022-09-09T14:10:32.961Z,32.90
2022-09-09T14:13:00.262Z,33.10
2022-09-09T14:15:28.511Z,32.90
2022-09-09T14:17:56.055Z,32.70
2022-09-09T14:20:23.327Z,32.80
2022-09-09T14:22:50.736Z,33.10
2022-09-09T14:25:18.317Z,33.30
2022-09-09T14:27:47.000Z,33.30
2022-09-09T14:30:14.465Z,33.30
2022-09-09T14:32:41.661Z,33.50
2022-09-09T14:35:09.481Z,33.60
2022-09-09T14:37:36.889Z,33.90
2022-09-09T14:40:04.580Z,34.50
2022-09-09T14:42:31.828Z,34.50
2022-09-09T14:44:59.062Z,35.00
2022-09-09T14:47:39.356Z,35.40
2022-09-09T14:50:10.274Z,35.40
2022-09-09T14:52:39.287Z,35.20
2022-09-09T14:55:08.385Z,35.80
2022-09-09T14:57:36.781Z,36.30
2022-09-09T15:00:10.615Z,36.50
2022-09-09T15:02:38.098Z,37.50
2022-09-09T15:05:06.308Z,38.10
2022-09-09T15:07:33.555Z,38.60
2022-09-09T15:10:00.891Z,39.30
2022-09-09T15:12:29.389Z,39.90
2022-09-09T15:14:56.870Z,40.10
2022-09-09T15:17:28.212Z,40.60
2022-09-09T15:19:56.024Z,40.60
2022-09-09T15:22:23.654Z,41.70
2022-09-09T15:24:51.471Z,41.30
2022-09-09T15:27:19.106Z,41.50
2022-09-09T15:29:47.878Z,42.00
2022-09-09T15:32:15.074Z,42.10
2022-09-09T15:34:43.021Z,42.00
2022-09-09T15:37:14.170Z,42.60
2022-09-09T15:39:42.037Z,43.10
2022-09-09T15:42:09.515Z,43.60
2022-09-09T15:44:43.346Z,44.20
2022-09-09T15:47:14.396Z,44.40
2022-09-09T15:49:41.705Z,44.50
2022-09-09T15:52:12.187Z,44.50
2022-09-09T15:54:40.166Z,44.60
2022-09-09T15:57:13.330Z,44.70
2022-09-09T15:59:41.291Z,44.80
2022-09-09T16:02:10.781Z,44.70
2022-09-09T16:04:39.542Z,44.40
2022-09-09T16:07:07.129Z,44.10
2022-09-09T16:09:36.221Z,43.80
2022-09-09T16:12:12.852Z,43.70
2022-09-09T16:14:40.210Z,43.80
2022-09-09T16:17:08.482Z,44.20
2022-09-09T16:19:36.257Z,44.60
2022-09-09T16:22:05.539Z,45.00
2022-09-09T16:24:33.552Z,45.60
2022-09-09T16:27:01.055Z,45.90
2022-09-09T16:29:28.563Z,46.50
2022-09-09T16:32:00.043Z,46.70
2022-09-09T16:34:31.094Z,47.10
2022-09-09T16:36:58.364Z,47.20
2022-09-09T16:39:28.406Z,47.40
2022-09-09T16:41:58.309Z,47.20
2022-09-09T16:44:27.241Z,47.50
2022-09-09T16:47:00.495Z,47.80
2022-09-09T16:49:29.573Z,47.90
2022-09-09T16:52:00.173Z,48.00
2022-09-09T16:54:28.223Z,48.10
2022-09-09T16:56:56.089Z,48.10
2022-09-09T16:59:24.461Z,48.30
2022-09-09T17:01:53.146Z,48.60
2022-09-09T17:04:26.441Z,49.00
2022-09-09T17:07:01.516Z,49.70
2022-09-09T17:09:30.583Z,50.30
2022-09-09T17:11:58.614Z,50.80
2022-09-09T17:14:27.163Z,51.00
2022-09-09T17:16:54.580Z,51.20
2022-09-09T17:19:21.754Z,51.30
2022-09-09T17:22:16.846Z,51.40
2022-09-09T17:24:39.653Z,51.30
2022-09-09T17:27:08.276Z,51.30
2022-09-09T17:29:37.479Z,51.00
2022-09-09T17:32:08.191Z,51.50
2022-09-09T17:34:36.847Z,51.60
2022-09-09T17:37:06.228Z,52.00
2022-09-09T17:39:34.455Z,51.70
2022-09-09T17:42:02.415Z,52.10
2022-09-09T17:44:29.944Z,50.90
2022-09-09T17:46:57.234Z,50.80
2022-09-09T17:49:24.741Z,50.90
2022-09-09T17:51:52.841Z,51.10
2022-09-09T17:54:24.121Z,51.20
2022-09-09T17:56:51.826Z,51.30
2022-09-09T17:59:19.738Z,51.60
2022-09-09T18:01:51.937Z,51.40
2022-09-09T18:04:20.489Z,51.60
2022-09-09T18:06:51.411Z,51.80
2022-09-09T18:09:23.637Z,52.00
2022-09-09T18:11:56.403Z,52.00
2022-09-09T18:14:34.045Z,52.00
2022-09-09T18:17:04.155Z,52.20
2022-09-09T18:19:33.189Z,52.50
2022-09-09T18:22:02.685Z,52.60
2022-09-09T18:24:31.847Z,52.60
2022-09-09T18:26:59.694Z,52.60
2022-09-09T18:29:27.005Z,52.80
2022-09-09T18:31:56.109Z,52.80
2022-09-09T18:34:28.870Z,53.10
2022-09-09T18:36:57.176Z,54.00
2022-09-09T18:39:30.178Z,54.80
2022-09-09T18:42:01.815Z,55.40
2022-09-09T18:44:34.530Z,56.20
2022-09-09T18:47:03.572Z,57.60
2022-09-09T18:49:31.434Z,57.40
2022-09-09T18:51:59.365Z,57.70
2022-09-09T18:54:34.309Z,58.00
2022-09-09T18:57:01.976Z,58.50
2022-09-09T18:59:30.971Z,58.90
2022-09-09T19:01:58.462Z,59.00
2022-09-09T19:04:27.482Z,59.30
2022-09-09T19:06:59.487Z,59.90
2022-09-09T19:09:32.475Z,60.40
2022-09-09T19:12:03.346Z,61.00
2022-09-09T19:14:30.977Z,62.00
2022-09-09T19:16:58.842Z,63.00
2022-09-09T19:19:30.259Z,63.80
2022-09-09T19:21:58.131Z,64.60
2022-09-09T19:24:30.324Z,65.40
2022-09-09T19:27:05.913Z,66.20
2022-09-09T19:29:36.845Z,66.80
2022-09-09T19:33:13.080Z,67.40
2022-09-09T19:34:52.688Z,67.90
2022-09-09T19:37:20.681Z,68.50
2022-09-09T19:39:49.862Z,69.00
2022-09-09T19:42:17.236Z,69.60
2022-09-09T19:44:44.639Z,70.10
2022-09-09T19:47:14.419Z,70.60
2022-09-09T19:49:46.177Z,71.10
2022-09-09T19:52:15.981Z,71.40
2022-09-09T19:54:44.091Z,71.90
2022-09-09T19:57:11.742Z,72.30
2022-09-09T20:00:08.490Z,73.00
2022-09-09T20:02:35.990Z,73.30
2022-09-09T20:05:03.528Z,73.80
2022-09-09T20:07:31.622Z,73.90
2022-09-09T20:09:58.905Z,74.00
2022-09-09T20:12:26.156Z,74.30
2022-09-09T20:14:54.815Z,74.50
2022-09-09T20:17:23.767Z,74.70
2022-09-09T20:19:50.968Z,75.70
2022-09-09T20:22:18.221Z,75.20
2022-09-09T20:24:45.464Z,75.40
2022-09-09T20:27:12.939Z,75.80
2022-09-09T20:29:40.290Z,76.10
2022-09-09T20:32:09.476Z,76.40
2022-09-09T20:34:36.770Z,76.70
2022-09-09T20:37:06.032Z,77.00
2022-09-09T20:39:33.585Z,77.10
2022-09-09T20:42:03.111Z,77.30
2022-09-09T20:45:16.200Z,77.60
2022-09-09T20:47:43.419Z,77.70
2022-09-09T20:50:10.617Z,77.80
2022-09-09T20:52:38.015Z,77.90
2022-09-09T20:55:07.531Z,78.20
2022-09-09T20:57:36.385Z,78.40
2022-09-09T21:00:06.429Z,78.70
2022-09-09T21:02:33.785Z,78.90
2022-09-09T21:05:01.650Z,79.20
2022-09-09T21:07:29.211Z,79.50
2022-09-09T21:09:57.589Z,79.60
2022-09-09T21:12:25.420Z,79.70
2022-09-09T21:14:52.749Z,80.00
2022-09-09T21:17:20.048Z,80.40
2022-09-09T21:19:47.407Z,80.60
2022-09-09T21:22:14.782Z,81.00
2022-09-09T21:24:45.863Z,81.30
2022-09-09T21:27:13.766Z,81.40
2022-09-09T21:29:40.960Z,81.70
2022-09-09T21:32:08.169Z,81.70
2022-09-09T21:34:35.680Z,81.90
2022-09-09T21:37:02.948Z,82.10
2022-09-09T21:39:30.155Z,82.10
2022-09-09T21:41:59.033Z,82.30
2022-09-09T21:44:26.821Z,82.50
2022-09-09T21:46:54.054Z,82.70
2022-09-09T21:49:21.539Z,82.20
2022-09-09T21:51:48.951Z,81.70
2022-09-09T21:54:16.186Z,81.70
2022-09-09T21:56:43.433Z,81.10
2022-09-09T21:59:12.169Z,81.10
2022-09-09T22:01:41.425Z,81.10
2022-09-09T22:04:08.733Z,81.00
2022-09-09T22:06:35.964Z,81.40
2022-09-09T22:09:04.605Z,81.80
2022-09-09T22:11:31.841Z,81.90
2022-09-09T22:13:59.127Z,82.30
2022-09-09T22:16:32.651Z,82.50
2022-09-09T22:19:10.709Z,83.30
2022-09-09T22:21:38.117Z,83.60
2022-09-09T22:24:08.890Z,83.90
2022-09-09T22:26:37.819Z,84.30
2022-09-09T22:29:06.817Z,83.40
2022-09-09T22:31:36.104Z,83.00
2022-09-09T22:34:04.747Z,82.50
2022-09-09T22:36:32.015Z,82.50
2022-09-09T22:38:59.432Z,82.10
2022-09-09T22:41:26.661Z,81.70
2022-09-09T22:44:05.439Z,81.60
2022-09-09T22:46:32.803Z,81.70
2022-09-09T22:49:03.323Z,81.70
2022-09-09T22:51:30.883Z,81.70
2022-09-09T22:53:58.051Z,82.60
2022-09-09T22:56:25.301Z,82.70
2022-09-09T22:58:57.375Z,82.80
2022-09-09T23:01:27.110Z,82.40
2022-09-09T23:04:02.713Z,82.80
2022-09-09T23:06:31.791Z,82.80
2022-09-09T23:09:02.763Z,82.70
2022-09-09T23:11:37.063Z,83.30
2022-09-09T23:14:09.231Z,83.80
2022-09-09T23:16:45.460Z,84.50
2022-09-09T23:19:16.654Z,84.70
2022-09-09T23:21:46.279Z,84.90
2022-09-09T23:24:17.664Z,85.30
2022-09-09T23:26:45.666Z,85.40
2022-09-09T23:29:14.677Z,85.90
2022-09-09T23:31:45.611Z,86.10
2022-09-09T23:34:13.982Z,87.20
2022-09-09T23:36:41.753Z,87.10
2022-09-09T23:39:10.852Z,87.20
2022-09-09T23:41:38.950Z,87.20
2022-09-09T23:44:07.508Z,87.90
2022-09-09T23:46:35.529Z,88.40
2022-09-09T23:49:04.985Z,88.50
2022-09-09T23:51:34.007Z,88.10
2022-09-09T23:54:04.853Z,87.60
2022-09-09T23:56:39.261Z,87.40
2022-09-09T23:59:08.502Z,87.70
